createdAt,value
2019-05-01T00:02:24.304Z,10.17
2019-05-01T00:05:16.844Z,10.21
2019-05-01T00:07:54.238Z,10.14
2019-05-01T00:10:25.956Z,10.19
2019-05-01T00:12:56.749Z,10.15
2019-05-01T00:15:32.654Z,10.11
2019-05-01T00:18:07.572Z,10.09
2019-05-01T00:20:38.326Z,10.11
2019-05-01T00:23:09.018Z,10.10
2019-05-01T00:25:44.855Z,10.03
2019-05-01T00:28:18.786Z,9.97
2019-05-01T00:30:52.625Z,9.86
2019-05-01T00:33:25.519Z,9.87
2019-05-01T00:35:56.175Z,9.83
2019-05-01T00:38:33.974Z,9.84
2019-05-01T00:41:06.640Z,9.84
2019-05-01T00:43:37.432Z,9.81
2019-05-01T00:46:10.205Z,9.78
2019-05-01T00:48:42.242Z,9.73
2019-05-01T00:51:20.257Z,9.71
2019-05-01T00:53:51.019Z,9.56
2019-05-01T00:56:40.615Z,9.63
2019-05-01T00:59:30.164Z,9.56
2019-05-01T01:02:19.776Z,9.47
2019-05-01T01:04:55.227Z,9.50
2019-05-01T01:07:26.037Z,9.40
2019-05-01T01:10:04.373Z,9.36
2019-05-01T01:12:34.994Z,9.32
2019-05-01T01:15:06.549Z,9.31
2019-05-01T01:17:38.512Z,9.33
2019-05-01T01:20:09.395Z,9.26
2019-05-01T01:22:45.306Z,9.26
2019-05-01T01:25:26.498Z,9.19
2019-05-01T01:27:56.991Z,9.04
2019-05-01T01:30:27.983Z,9.07
2019-05-01T01:32:58.834Z,8.97
2019-05-01T01:35:29.625Z,8.95
2019-05-01T01:38:00.228Z,9.00
2019-05-01T01:40:33.229Z,8.93
2019-05-01T01:43:21.644Z,8.96
2019-05-01T01:45:54.336Z,8.86
2019-05-01T01:48:26.304Z,8.73
2019-05-01T01:50:57.412Z,8.86
2019-05-01T01:53:28.269Z,8.87
2019-05-01T01:56:02.277Z,8.74
2019-05-01T01:58:34.167Z,8.66
2019-05-01T02:01:26.961Z,8.65
2019-05-01T02:04:02.912Z,8.68
2019-05-01T02:06:38.697Z,8.68
2019-05-01T02:09:11.111Z,8.64
2019-05-01T02:11:42.004Z,8.64
2019-05-01T02:14:14.672Z,8.58
2019-05-01T02:16:48.835Z,8.47
2019-05-01T02:19:19.683Z,8.38
2019-05-01T02:21:51.623Z,8.38
2019-05-01T02:24:22.369Z,8.32
2019-05-01T02:26:57.073Z,8.44
2019-05-01T02:29:38.217Z,8.33
2019-05-01T02:32:09.324Z,8.37
2019-05-01T02:34:47.841Z,8.23
2019-05-01T02:37:20.370Z,8.16
2019-05-01T02:39:54.569Z,8.15
2019-05-01T02:42:30.108Z,8.14
2019-05-01T02:45:04.386Z,8.15
2019-05-01T02:47:39.213Z,8.16
2019-05-01T02:50:13.584Z,8.01
2019-05-01T02:52:46.450Z,7.97
2019-05-01T02:55:41.986Z,7.99
2019-05-01T02:58:13.745Z,8.03
2019-05-01T03:00:46.360Z,7.99
2019-05-01T03:03:17.126Z,7.84
2019-05-01T03:05:50.273Z,7.92
2019-05-01T03:08:21.917Z,7.98
2019-05-01T03:10:54.628Z,7.97
2019-05-01T03:13:26.426Z,7.93
2019-05-01T03:16:00.614Z,7.89
2019-05-01T03:18:40.516Z,7.85
2019-05-01T03:21:35.622Z,7.75
2019-05-01T03:24:10.732Z,7.72
2019-05-01T03:26:42.822Z,7.78
2019-05-01T03:29:14.987Z,7.77
2019-05-01T03:32:12.875Z,7.72
2019-05-01T03:34:23.546Z,7.59
2019-05-01T03:36:56.789Z,7.56
2019-05-01T03:39:37.872Z,7.51
2019-05-01T03:42:09.200Z,7.50
2019-05-01T03:44:41.579Z,7.37
2019-05-01T03:47:15.284Z,7.34
2019-05-01T03:49:47.157Z,7.37
2019-05-01T03:52:18.218Z,7.38
2019-05-01T03:54:49.158Z,7.42
2019-05-01T03:57:22.237Z,7.40
2019-05-01T03:59:55.343Z,7.24
2019-05-01T04:02:47.376Z,7.25
2019-05-01T04:05:18.062Z,7.30
2019-05-01T04:07:54.467Z,7.21
2019-05-01T04:10:31.101Z,7.23
2019-05-01T04:13:04.176Z,7.15
2019-05-01T04:15:37.351Z,7.19
2019-05-01T04:18:14.084Z,7.20
2019-05-01T04:20:47.464Z,7.08
2019-05-01T04:23:19.657Z,7.11
2019-05-01T04:25:51.319Z,7.17
2019-05-01T04:28:49.848Z,7.24
2019-05-01T04:31:47.108Z,7.22
2019-05-01T04:34:25.494Z,7.04
2019-05-01T04:36:59.862Z,7.00
2019-05-01T04:39:30.833Z,7.00
2019-05-01T04:42:06.688Z,7.00
2019-05-01T04:44:37.508Z,7.01
2019-05-01T04:47:09.541Z,7.04
2019-05-01T04:49:43.978Z,7.00
2019-05-01T04:52:15.520Z,7.00
2019-05-01T04:54:47.737Z,7.04
2019-05-01T04:57:20.441Z,6.95
2019-05-01T04:59:52.780Z,6.96
2019-05-01T05:02:33.360Z,7.04
2019-05-01T05:05:04.611Z,7.05
2019-05-01T05:07:36.926Z,7.13
2019-05-01T05:10:08.818Z,7.15
2019-05-01T05:12:49.918Z,7.20
2019-05-01T05:15:36.723Z,7.21
2019-05-01T05:18:09.790Z,7.22
2019-05-01T05:20:40.486Z,7.29
2019-05-01T05:23:12.570Z,7.29
2019-05-01T05:25:44.581Z,7.31
2019-05-01T05:28:16.070Z,7.35
2019-05-01T05:30:51.553Z,7.38
2019-05-01T05:33:27.687Z,7.37
2019-05-01T05:36:00.444Z,7.42
2019-05-01T05:39:03.536Z,7.47
2019-05-01T05:41:35.600Z,7.54
2019-05-01T05:44:11.257Z,7.66
2019-05-01T05:46:42.328Z,7.73
2019-05-01T05:49:13.101Z,7.79
2019-05-01T05:52:21.990Z,7.83
2019-05-01T05:55:16.075Z,7.90
2019-05-01T05:58:19.029Z,7.95
2019-05-01T06:01:24.411Z,8.03
2019-05-01T06:04:28.653Z,8.07
2019-05-01T06:07:22.198Z,8.09
2019-05-01T06:10:03.604Z,8.14
2019-05-01T06:12:53.215Z,8.21
2019-05-01T06:15:41.084Z,8.27
2019-05-01T06:18:23.428Z,8.31
2019-05-01T06:21:07.288Z,8.38
2019-05-01T06:23:44.722Z,8.43
2019-05-01T06:26:32.098Z,8.49
2019-05-01T06:29:04.945Z,8.56
2019-05-01T06:32:01.960Z,8.63
2019-05-01T06:34:43.076Z,8.71
2019-05-01T06:37:25.419Z,8.78
2019-05-01T06:39:55.607Z,8.84
2019-05-01T06:42:26.391Z,8.90
2019-05-01T06:45:05.501Z,8.93
2019-05-01T06:47:55.205Z,9.01
2019-05-01T06:50:51.004Z,9.07
2019-05-01T06:53:25.302Z,9.14
2019-05-01T06:55:56.523Z,9.22
2019-05-01T06:58:35.667Z,9.29
2019-05-01T07:01:06.610Z,9.36
2019-05-01T07:03:40.815Z,9.43
2019-05-01T07:06:14.380Z,9.51
2019-05-01T07:08:43.361Z,9.59
2019-05-01T07:11:28.831Z,9.66
2019-05-01T07:14:10.824Z,9.71
2019-05-01T07:16:40.541Z,9.81
2019-05-01T07:19:12.030Z,9.90
2019-05-01T07:21:43.503Z,9.97
2019-05-01T07:24:24.130Z,10.05
2019-05-01T07:26:52.889Z,10.12
2019-05-01T07:29:25.413Z,10.21
2019-05-01T07:31:56.448Z,10.28
2019-05-01T07:34:27.447Z,10.35
2019-05-01T07:37:12.761Z,10.45
2019-05-01T07:39:44.794Z,10.52
2019-05-01T07:42:28.349Z,10.62
2019-05-01T07:45:19.672Z,10.71
2019-05-01T07:47:56.565Z,10.80
2019-05-01T07:50:31.612Z,10.92
2019-05-01T07:53:09.365Z,11.02
2019-05-01T07:55:41.096Z,11.09
2019-05-01T07:58:15.972Z,11.19
2019-05-01T08:01:13.244Z,11.31
2019-05-01T08:03:44.772Z,11.36
2019-05-01T08:06:21.446Z,11.49
2019-05-01T08:08:51.193Z,11.56
2019-05-01T08:11:23.339Z,11.63
2019-05-01T08:14:06.594Z,11.76
2019-05-01T08:16:26.681Z,11.83
2019-05-01T08:19:04.266Z,11.90
2019-05-01T08:22:04.073Z,11.97
2019-05-01T08:24:34.864Z,12.06
2019-05-01T08:27:09.252Z,12.15
2019-05-01T08:30:12.702Z,12.24
2019-05-01T08:32:56.553Z,12.35
2019-05-01T08:35:31.742Z,12.46
2019-05-01T08:38:03.081Z,12.59
2019-05-01T08:40:44.096Z,12.80
2019-05-01T08:43:18.120Z,12.93
2019-05-01T08:46:11.871Z,13.08
2019-05-01T08:48:45.468Z,13.15
2019-05-01T08:51:20.933Z,13.21
2019-05-01T08:53:52.727Z,13.26
2019-05-01T08:56:31.174Z,13.30
2019-05-01T08:59:01.727Z,13.35
2019-05-01T09:01:40.821Z,13.43
2019-05-01T09:04:13.145Z,13.48
2019-05-01T09:06:45.185Z,13.54
2019-05-01T09:09:17.527Z,13.57
2019-05-01T09:11:48.127Z,13.63
2019-05-01T09:14:20.095Z,13.69
2019-05-01T09:16:52.492Z,13.75
2019-05-01T09:19:23.208Z,13.79
2019-05-01T09:21:55.219Z,13.93
2019-05-01T09:24:28.032Z,14.03
2019-05-01T09:27:18.548Z,14.09
2019-05-01T09:29:51.550Z,14.15
2019-05-01T09:32:30.447Z,14.23
2019-05-01T09:35:14.601Z,14.29
2019-05-01T09:37:34.418Z,14.30
2019-05-01T09:40:09.146Z,14.34
2019-05-01T09:42:41.622Z,14.38
2019-05-01T09:45:13.195Z,14.40
2019-05-01T09:47:43.952Z,14.43
2019-05-01T09:50:17.331Z,14.49
2019-05-01T09:52:59.827Z,14.50
2019-05-01T09:55:43.046Z,14.60
2019-05-01T09:58:16.466Z,14.66
2019-05-01T10:00:48.756Z,14.73
2019-05-01T10:03:21.094Z,14.77
2019-05-01T10:05:53.044Z,14.82
2019-05-01T10:08:23.871Z,14.88
2019-05-01T10:10:59.906Z,14.90
2019-05-01T10:13:33.589Z,14.94
2019-05-01T10:16:04.173Z,15.12
2019-05-01T10:18:35.975Z,15.14
2019-05-01T10:21:07.768Z,15.16
2019-05-01T10:23:39.691Z,15.16
2019-05-01T10:26:14.318Z,15.19
2019-05-01T10:29:02.932Z,15.23
2019-05-01T10:31:51.242Z,15.29
2019-05-01T10:34:32.110Z,15.33
2019-05-01T10:37:02.857Z,15.40
2019-05-01T10:39:35.744Z,15.46
2019-05-01T10:42:07.676Z,15.54
2019-05-01T10:44:39.724Z,15.67
2019-05-01T10:47:10.380Z,15.72
2019-05-01T10:49:41.144Z,15.75
2019-05-01T10:52:19.549Z,15.83
2019-05-01T10:54:52.857Z,16.13
2019-05-01T10:57:23.549Z,16.18
2019-05-01T10:59:54.290Z,16.25
2019-05-01T11:02:28.477Z,16.29
2019-05-01T11:05:01.123Z,16.32
2019-05-01T11:07:31.950Z,16.50
2019-05-01T11:10:02.604Z,16.67
2019-05-01T11:12:33.280Z,16.79
2019-05-01T11:15:04.042Z,16.90
2019-05-01T11:17:35.966Z,17.03
2019-05-01T11:20:09.718Z,17.00
2019-05-01T11:22:40.350Z,16.99
2019-05-01T11:25:11.380Z,16.96
2019-05-01T11:27:42.133Z,16.95
2019-05-01T11:30:16.018Z,17.05
2019-05-01T11:32:58.862Z,17.17
2019-05-01T11:35:48.581Z,17.17
2019-05-01T11:38:38.650Z,17.15
2019-05-01T11:41:15.676Z,17.14
2019-05-01T11:43:46.398Z,17.08
2019-05-01T11:46:17.125Z,17.07
2019-05-01T11:48:49.117Z,17.05
2019-05-01T11:51:19.865Z,17.07
2019-05-01T11:53:52.612Z,17.08
2019-05-01T11:56:24.221Z,17.02
2019-05-01T11:58:56.133Z,17.02
2019-05-01T12:01:28.184Z,17.10
2019-05-01T12:03:58.852Z,17.13
2019-05-01T12:06:29.641Z,17.19
2019-05-01T12:09:01.544Z,17.20
2019-05-01T12:11:35.310Z,17.26
2019-05-01T12:14:06.505Z,17.29
2019-05-01T12:17:14.291Z,17.35
2019-05-01T12:19:45.019Z,17.39
2019-05-01T12:22:15.670Z,17.45
2019-05-01T12:24:46.242Z,17.49
2019-05-01T12:27:21.912Z,17.53
2019-05-01T12:29:53.682Z,17.58
2019-05-01T12:32:24.486Z,17.64
2019-05-01T12:34:55.209Z,17.70
2019-05-01T12:37:35.891Z,17.77
2019-05-01T12:40:16.403Z,17.80
2019-05-01T12:42:48.431Z,17.88
2019-05-01T12:45:21.030Z,17.97
2019-05-01T12:47:58.102Z,18.04
2019-05-01T12:50:29.094Z,18.06
2019-05-01T12:53:21.800Z,18.06
2019-05-01T12:56:16.035Z,18.14
2019-05-01T12:58:51.019Z,18.20
2019-05-01T13:01:22.795Z,18.27
2019-05-01T13:03:53.618Z,18.37
2019-05-01T13:06:25.526Z,18.37
2019-05-01T13:08:57.529Z,18.44
2019-05-01T13:11:28.302Z,18.50
2019-05-01T13:14:03.952Z,18.55
2019-05-01T13:16:35.928Z,18.64
2019-05-01T13:19:07.823Z,18.72
2019-05-01T13:21:46.278Z,18.76
2019-05-01T13:24:17.143Z,18.85
2019-05-01T13:26:54.982Z,18.84
2019-05-01T13:29:37.065Z,18.84
2019-05-01T13:32:27.808Z,18.88
2019-05-01T13:34:58.646Z,18.92
2019-05-01T13:37:30.460Z,19.03
2019-05-01T13:40:02.590Z,19.10
2019-05-01T13:42:33.522Z,19.18
2019-05-01T13:45:07.943Z,19.27
2019-05-01T13:47:44.487Z,19.43
2019-05-01T13:50:20.815Z,19.48
2019-05-01T13:52:51.617Z,19.47
2019-05-01T13:55:29.366Z,19.39
2019-05-01T13:58:01.298Z,19.36
2019-05-01T14:00:33.051Z,19.36
2019-05-01T14:03:09.920Z,19.37
2019-05-01T14:05:40.948Z,19.35
2019-05-01T14:08:15.856Z,19.34
2019-05-01T14:10:46.460Z,19.34
2019-05-01T14:13:18.651Z,19.38
2019-05-01T14:15:52.461Z,19.35
2019-05-01T14:18:24.484Z,19.39
2019-05-01T14:21:16.289Z,19.40
2019-05-01T14:24:15.218Z,19.42
2019-05-01T14:26:47.026Z,19.35
2019-05-01T14:29:19.048Z,19.36
2019-05-01T14:31:50.922Z,19.32
2019-05-01T14:34:21.740Z,19.28
2019-05-01T14:36:59.382Z,19.32
2019-05-01T14:39:31.369Z,19.26
2019-05-01T14:42:02.044Z,19.24
2019-05-01T14:44:36.968Z,19.23
2019-05-01T14:47:08.090Z,19.23
2019-05-01T14:49:40.864Z,19.23
2019-05-01T14:52:12.763Z,19.22
2019-05-01T14:54:44.483Z,19.21
2019-05-01T14:57:15.521Z,19.17
2019-05-01T14:59:47.524Z,19.18
2019-05-01T15:02:20.199Z,19.14
2019-05-01T15:04:52.679Z,19.10
2019-05-01T15:07:25.385Z,19.08
2019-05-01T15:09:57.387Z,19.10
2019-05-01T15:12:27.964Z,19.11
2019-05-01T15:15:20.012Z,19.13
2019-05-01T15:18:08.742Z,19.12
2019-05-01T15:20:39.718Z,19.13
2019-05-01T15:23:10.369Z,19.18
2019-05-01T15:25:41.192Z,19.18
2019-05-01T15:28:11.844Z,19.20
2019-05-01T15:30:42.588Z,19.30
2019-05-01T15:33:19.495Z,19.42
2019-05-01T15:35:52.667Z,19.61
2019-05-01T15:38:23.371Z,19.80
2019-05-01T15:41:07.809Z,20.00
2019-05-01T15:43:46.548Z,20.07
2019-05-01T15:46:25.546Z,20.21
2019-05-01T15:48:57.411Z,20.31
2019-05-01T15:51:28.282Z,20.33
2019-05-01T15:53:58.922Z,20.37
2019-05-01T15:56:33.437Z,20.39
2019-05-01T15:59:04.178Z,20.44
2019-05-01T16:01:34.853Z,20.41
2019-05-01T16:04:08.166Z,20.33
2019-05-01T16:06:44.930Z,20.34
2019-05-01T16:09:17.502Z,20.32
2019-05-01T16:12:13.198Z,20.27
2019-05-01T16:14:48.186Z,20.26
2019-05-01T16:17:19.025Z,20.19
2019-05-01T16:19:50.921Z,20.20
2019-05-01T16:22:22.989Z,20.18
2019-05-01T16:24:54.967Z,20.21
2019-05-01T16:27:29.366Z,20.14
2019-05-01T16:30:01.220Z,20.14
2019-05-01T16:32:32.045Z,20.17
2019-05-01T16:35:02.764Z,20.14
2019-05-01T16:37:36.940Z,20.14
2019-05-01T16:40:36.924Z,20.02
2019-05-01T16:43:10.287Z,20.00
2019-05-01T16:45:48.606Z,19.92
2019-05-01T16:48:19.373Z,19.92
2019-05-01T16:50:50.166Z,19.81
2019-05-01T16:53:22.213Z,19.79
2019-05-01T16:55:55.809Z,19.76
2019-05-01T16:58:33.348Z,19.77
2019-05-01T17:01:15.508Z,19.75
2019-05-01T17:04:12.125Z,19.69
2019-05-01T17:06:57.646Z,19.66
2019-05-01T17:09:47.048Z,19.61
2019-05-01T17:12:20.376Z,19.52
2019-05-01T17:14:53.696Z,19.50
2019-05-01T17:17:27.065Z,19.50
2019-05-01T17:20:06.565Z,19.43
2019-05-01T17:22:39.347Z,19.36
2019-05-01T17:25:11.191Z,19.25
2019-05-01T17:27:42.051Z,19.17
2019-05-01T17:30:18.446Z,19.04
2019-05-01T17:32:50.124Z,18.95
2019-05-01T17:35:24.024Z,18.79
2019-05-01T17:37:56.537Z,18.70
2019-05-01T17:40:28.458Z,18.64
2019-05-01T17:43:00.177Z,18.43
2019-05-01T17:45:34.784Z,18.41
2019-05-01T17:48:06.831Z,18.30
2019-05-01T17:50:39.037Z,18.20
2019-05-01T17:53:09.977Z,18.06
2019-05-01T17:55:42.245Z,17.98
2019-05-01T17:58:14.520Z,17.83
2019-05-01T18:01:03.123Z,17.75
2019-05-01T18:03:55.885Z,17.70
2019-05-01T18:06:30.701Z,17.66
2019-05-01T18:09:03.531Z,17.56
2019-05-01T18:11:41.645Z,17.53
2019-05-01T18:14:19.640Z,17.52
2019-05-01T18:16:58.205Z,17.39
2019-05-01T18:19:30.969Z,17.29
2019-05-01T18:22:17.570Z,17.23
2019-05-01T18:25:06.304Z,17.13
2019-05-01T18:27:57.396Z,17.08
2019-05-01T18:30:36.934Z,16.97
2019-05-01T18:33:08.010Z,16.98
2019-05-01T18:35:38.904Z,16.96
2019-05-01T18:38:35.729Z,16.89
2019-05-01T18:41:31.180Z,16.77
2019-05-01T18:44:05.338Z,16.63
2019-05-01T18:46:34.602Z,16.57
2019-05-01T18:49:05.541Z,16.56
2019-05-01T18:51:40.707Z,16.44
2019-05-01T18:54:11.227Z,16.43
2019-05-01T18:56:45.292Z,16.43
2019-05-01T18:59:16.292Z,16.40
2019-05-01T19:01:49.839Z,16.35
2019-05-01T19:04:23.483Z,16.30
2019-05-01T19:06:58.929Z,16.25
2019-05-01T19:09:31.024Z,16.20
2019-05-01T19:12:09.579Z,16.14
2019-05-01T19:14:40.328Z,16.09
2019-05-01T19:17:17.228Z,16.07
2019-05-01T19:19:48.358Z,16.06
2019-05-01T19:22:19.675Z,16.04
2019-05-01T19:24:52.582Z,15.95
2019-05-01T19:27:24.681Z,15.85
2019-05-01T19:29:57.909Z,15.78
2019-05-01T19:32:30.185Z,15.74
2019-05-01T19:35:01.342Z,15.57
2019-05-01T19:37:32.048Z,15.54
2019-05-01T19:40:03.119Z,15.46
2019-05-01T19:42:35.116Z,15.48
2019-05-01T19:45:07.777Z,15.48
2019-05-01T19:47:40.247Z,15.47
2019-05-01T19:50:13.330Z,15.50
2019-05-01T19:52:44.313Z,15.44
2019-05-01T19:55:16.749Z,15.39
2019-05-01T19:57:47.806Z,15.33
2019-05-01T20:00:45.836Z,15.37
2019-05-01T20:03:17.834Z,15.35
2019-05-01T20:05:48.679Z,15.37
2019-05-01T20:08:19.793Z,15.32
2019-05-01T20:10:52.972Z,15.31
2019-05-01T20:13:24.853Z,15.28
2019-05-01T20:15:56.977Z,15.26
2019-05-01T20:18:28.016Z,15.24
2019-05-01T20:20:58.824Z,15.19
2019-05-01T20:23:31.363Z,15.16
2019-05-01T20:26:02.645Z,15.16
2019-05-01T20:28:34.553Z,15.07
2019-05-01T20:31:07.929Z,15.03
2019-05-01T20:33:43.933Z,15.03
2019-05-01T20:36:11.682Z,15.01
2019-05-01T20:38:45.860Z,14.97
2019-05-01T20:41:18.086Z,14.94
2019-05-01T20:43:50.209Z,14.92
2019-05-01T20:46:25.323Z,14.87
2019-05-01T20:49:01.390Z,14.79
2019-05-01T20:51:31.425Z,14.72
2019-05-01T20:54:01.987Z,14.69
2019-05-01T20:56:50.027Z,14.63
2019-05-01T20:59:22.210Z,14.56
2019-05-01T21:01:53.111Z,14.55
2019-05-01T21:04:57.744Z,14.50
2019-05-01T21:07:36.596Z,14.50
2019-05-01T21:10:09.821Z,14.45
2019-05-01T21:12:40.661Z,14.43
2019-05-01T21:15:13.262Z,14.35
2019-05-01T21:17:48.795Z,14.32
2019-05-01T21:20:16.891Z,14.24
2019-05-01T21:22:48.986Z,14.19
2019-05-01T21:25:19.648Z,14.11
2019-05-01T21:27:50.338Z,14.11
2019-05-01T21:30:23.745Z,14.02
2019-05-01T21:32:59.011Z,13.88
2019-05-01T21:35:30.527Z,13.89
2019-05-01T21:38:01.530Z,13.80
2019-05-01T21:40:40.394Z,13.79
2019-05-01T21:43:07.092Z,13.70
2019-05-01T21:45:38.998Z,13.68
2019-05-01T21:48:09.833Z,13.63
2019-05-01T21:50:43.747Z,13.53
2019-05-01T21:53:14.167Z,13.54
2019-05-01T21:55:45.991Z,13.50
2019-05-01T21:58:21.124Z,13.39
2019-05-01T22:00:55.103Z,13.38
2019-05-01T22:03:24.848Z,13.31
2019-05-01T22:05:57.621Z,13.31
2019-05-01T22:08:29.567Z,13.22
2019-05-01T22:11:01.731Z,13.18
2019-05-01T22:13:34.002Z,13.20
2019-05-01T22:16:13.433Z,13.16
2019-05-01T22:19:09.076Z,13.12
2019-05-01T22:22:03.418Z,13.10
2019-05-01T22:25:00.812Z,13.03
2019-05-01T22:27:50.451Z,12.89
2019-05-01T22:30:46.194Z,12.82
2019-05-01T22:33:17.013Z,12.78
2019-05-01T22:35:51.654Z,12.75
2019-05-01T22:38:23.636Z,12.73
2019-05-01T22:41:06.614Z,12.60
2019-05-01T22:43:38.692Z,12.48
2019-05-01T22:46:20.268Z,12.42
2019-05-01T22:48:52.591Z,12.31
2019-05-01T22:51:26.376Z,12.33
2019-05-01T22:53:57.109Z,12.25
2019-05-01T22:56:29.144Z,12.17
2019-05-01T22:59:01.028Z,12.11
2019-05-01T23:01:31.826Z,11.98
2019-05-01T23:04:05.180Z,12.04
2019-05-01T23:06:37.084Z,11.99
2019-05-01T23:09:11.261Z,11.81
2019-05-01T23:11:47.413Z,11.84
2019-05-01T23:14:20.551Z,11.87
2019-05-01T23:17:05.171Z,11.86
2019-05-01T23:19:36.016Z,11.78
2019-05-01T23:22:08.947Z,11.80
2019-05-01T23:24:40.824Z,11.78
2019-05-01T23:27:12.777Z,11.72
2019-05-01T23:29:50.944Z,11.63
2019-05-01T23:32:24.941Z,11.61
2019-05-01T23:34:57.225Z,11.55
2019-05-01T23:37:28.221Z,11.49
2019-05-01T23:39:58.756Z,11.41
2019-05-01T23:42:29.435Z,11.13
2019-05-01T23:45:00.415Z,11.20
2019-05-01T23:47:31.170Z,11.28
2019-05-01T23:50:01.757Z,11.14
2019-05-01T23:52:33.962Z,11.10
2019-05-01T23:55:05.565Z,11.10
2019-05-01T23:57:37.542Z,11.05
